Time;durP1;ratioP1;P1;durP2;ratioP2;P2;SDS_P1;SDS_P2;PMS_P1;PMS_P2;Temp;Humidity;BMP_temperature;BMP_pressure;BME280_temperature;BME280_humidity;BME280_pressure;Samples;Min_cycle;Max_cycle;Signal;HPM_P1;HPM_P2
2023/10/06 00:01:42;;;;;;;9.80;5.55;;;;;;;11.46;100.00;102349.53;5032240;28;20040;-72
2023/10/06 00:04:12;;;;;;;8.43;5.50;;;;;;;11.43;100.00;102350.50;5017893;28;20309;-71
2023/10/06 00:06:42;;;;;;;9.32;6.15;;;;;;;11.41;100.00;102348.78;5013156;28;20100;-72
2023/10/06 00:09:25;;;;;;;8.10;6.20;;;;;;;11.39;100.00;102350.63;5012655;28;20072;-71
2023/10/06 00:11:51;;;;;;;8.93;5.93;;;;;;;11.36;100.00;102340.91;5014522;28;20022;-71
2023/10/06 00:14:19;;;;;;;9.68;5.68;;;;;;;11.36;100.00;102348.91;5011276;28;20029;-72
2023/10/06 00:16:46;;;;;;;11.45;6.07;;;;;;;11.34;100.00;102348.13;5021419;28;20038;-72
2023/10/06 00:19:51;;;;;;;8.93;6.07;;;;;;;11.33;100.00;102354.38;5023459;28;20053;-72
2023/10/06 00:22:17;;;;;;;8.10;6.03;;;;;;;11.31;100.00;102348.19;5008023;28;20049;-72
2023/10/06 00:24:47;;;;;;;7.50;6.07;;;;;;;11.30;100.00;102354.44;5015655;28;20025;-72
2023/10/06 00:27:13;;;;;;;11.05;6.75;;;;;;;11.28;100.00;102342.94;5015876;28;20022;-72
2023/10/06 00:29:44;;;;;;;9.95;6.40;;;;;;;11.28;100.00;102355.41;5021198;28;20052;-72
2023/10/06 00:32:27;;;;;;;9.73;6.10;;;;;;;11.22;100.00;102349.34;5019077;28;20045;-72
2023/10/06 00:35:08;;;;;;;9.70;6.03;;;;;;;11.24;100.00;102346.63;5006928;28;20034;-72
2023/10/06 00:37:38;;;;;;;10.63;6.13;;;;;;;11.28;100.00;102356.28;5020098;28;20040;-72
2023/10/06 00:40:11;;;;;;;7.75;5.57;;;;;;;11.26;100.00;102351.94;5013011;28;20069;-72
2023/10/06 00:42:38;;;;;;;11.43;6.10;;;;;;;11.20;100.00;102350.28;5011416;28;20073;-72
2023/10/06 00:45:07;;;;;;;10.80;6.13;;;;;;;11.19;100.00;102344.09;5015025;28;20092;-71
2023/10/06 00:47:38;;;;;;;11.07;6.50;;;;;;;11.18;100.00;102336.16;5020330;28;20028;-71
2023/10/06 00:50:07;;;;;;;9.25;6.22;;;;;;;11.17;100.00;102337.09;5014713;28;20037;-73
2023/10/06 00:52:34;;;;;;;9.25;6.38;;;;;;;11.14;100.00;102334.50;5017042;28;20073;-72
2023/10/06 00:55:05;;;;;;;9.57;6.50;;;;;;;11.13;100.00;102338.09;5023015;28;20041;-72
2023/10/06 00:57:31;;;;;;;10.32;6.60;;;;;;;11.08;100.00;102334.69;5014619;28;20029;-72
2023/10/06 00:59:58;;;;;;;9.63;6.70;;;;;;;11.05;100.00;102337.44;5018557;28;20041;-72
2023/10/06 01:02:24;;;;;;;10.48;6.28;;;;;;;11.08;100.00;102340.03;5019670;28;20155;-72
2023/10/06 01:04:52;;;;;;;10.63;6.15;;;;;;;11.10;100.00;102338.16;5016855;28;20116;-72
2023/10/06 01:07:18;;;;;;;10.52;6.70;;;;;;;11.03;100.00;102332.13;5013780;28;20093;-72
2023/10/06 01:09:56;;;;;;;9.60;6.38;;;;;;;11.04;100.00;102323.25;5023034;28;20048;-71
2023/10/06 01:12:22;;;;;;;11.93;6.72;;;;;;;11.04;100.00;102327.72;5009760;28;20065;-71
2023/10/06 01:14:51;;;;;;;9.65;6.45;;;;;;;11.00;100.00;102318.94;5013962;28;20064;-71
2023/10/06 01:17:17;;;;;;;10.75;7.10;;;;;;;10.96;100.00;102304.81;5019623;28;20479;-71
2023/10/06 01:19:53;;;;;;;11.70;6.70;;;;;;;10.95;100.00;102316.41;5007433;28;20079;-71
2023/10/06 01:24:49;;;;;;;10.95;7.10;;;;;;;10.91;100.00;102306.75;5017666;28;20046;-71
2023/10/06 01:27:14;;;;;;;11.68;6.97;;;;;;;10.90;100.00;102299.66;5014708;28;20048;-72
2023/10/06 01:29:42;;;;;;;12.73;7.07;;;;;;;10.86;100.00;102308.66;5016716;28;20025;-72
2023/10/06 01:32:08;;;;;;;10.98;7.20;;;;;;;10.83;100.00;102300.78;5018503;28;20052;-72
2023/10/06 01:34:38;;;;;;;12.13;7.50;;;;;;;10.84;100.00;102310.50;5020742;28;20032;-72
2023/10/06 01:37:09;;;;;;;12.00;6.78;;;;;;;10.84;100.00;102313.16;5021170;28;20033;-72
2023/10/06 01:39:35;;;;;;;13.75;7.18;;;;;;;10.81;100.00;102310.56;5012511;28;20026;-71
2023/10/06 01:42:04;;;;;;;11.65;7.28;;;;;;;10.75;100.00;102313.44;5015345;28;20137;-72
2023/10/06 01:44:34;;;;;;;11.40;6.90;;;;;;;10.79;100.00;102315.09;5017725;28;20120;-72
2023/10/06 01:47:04;;;;;;;9.10;7.13;;;;;;;10.68;100.00;102301.19;5015594;28;20266;-71
2023/10/06 01:49:31;;;;;;;9.95;7.35;;;;;;;10.74;100.00;102309.00;5012398;28;20025;-72
2023/10/06 01:51:57;;;;;;;13.52;7.70;;;;;;;10.70;100.00;102302.00;5009698;28;20036;-72
2023/10/06 01:54:27;;;;;;;13.65;8.05;;;;;;;10.69;100.00;102301.13;5015228;28;20033;-72
2023/10/06 01:56:54;;;;;;;14.13;7.93;;;;;;;10.69;100.00;102289.63;5029573;28;20411;-71
2023/10/06 01:59:19;;;;;;;11.07;7.63;;;;;;;10.67;100.00;102289.66;5017736;28;20034;-71
2023/10/06 02:01:45;;;;;;;15.48;8.35;;;;;;;10.66;100.00;102289.72;5023244;28;20471;-72
2023/10/06 02:04:14;;;;;;;10.55;7.85;;;;;;;10.64;100.00;102288.88;5024675;28;20533;-73
2023/10/06 02:06:44;;;;;;;10.95;8.23;;;;;;;10.63;100.00;102282.69;5023862;28;20094;-72
2023/10/06 02:09:15;;;;;;;10.93;8.25;;;;;;;10.60;100.00;102282.75;5022567;28;20041;-72
2023/10/06 02:11:42;;;;;;;17.30;8.45;;;;;;;10.57;100.00;102287.28;5023861;28;20024;-72
2023/10/06 02:14:09;;;;;;;10.88;8.07;;;;;;;10.59;100.00;102285.47;5022311;28;20036;-71
2023/10/06 02:16:35;;;;;;;13.13;7.70;;;;;;;10.55;100.00;102291.81;5016352;28;20116;-71
2023/10/06 02:19:02;;;;;;;12.82;8.05;;;;;;;10.56;100.00;102297.06;5010857;28;20290;-71
2023/10/06 02:21:29;;;;;;;10.50;7.05;;;;;;;10.51;100.00;102295.47;5018812;28;20547;-72
2023/10/06 02:24:03;;;;;;;12.18;7.68;;;;;;;10.51;100.00;102292.81;5029766;28;20369;-72
2023/10/06 02:26:28;;;;;;;13.18;7.90;;;;;;;10.53;100.00;102293.63;5011152;28;20029;-71
2023/10/06 02:28:55;;;;;;;13.57;7.82;;;;;;;10.52;100.00;102291.88;5023816;28;20033;-72
2023/10/06 02:31:21;;;;;;;10.48;7.50;;;;;;;10.48;100.00;102291.97;5026098;28;20029;-71
2023/10/06 02:33:51;;;;;;;13.20;7.60;;;;;;;10.46;100.00;102282.28;5019459;28;20517;-71
2023/10/06 02:36:21;;;;;;;11.82;7.30;;;;;;;10.47;100.00;102282.22;5024490;28;20025;-72
2023/10/06 02:38:50;;;;;;;12.52;7.55;;;;;;;10.46;100.00;102287.59;5035196;28;20067;-72
2023/10/06 02:41:21;;;;;;;12.40;8.30;;;;;;;10.39;100.00;102288.69;5020047;28;20392;-72
2023/10/06 02:43:51;;;;;;;10.27;7.32;;;;;;;10.45;100.00;102292.06;5024271;28;20026;-73
2023/10/06 02:46:20;;;;;;;12.25;7.53;;;;;;;10.44;100.00;102284.97;5015677;28;20249;-72
2023/10/06 02:48:49;;;;;;;12.18;8.15;;;;;;;10.46;100.00;102287.59;5024224;28;20519;-72
2023/10/06 02:51:32;;;;;;;11.98;7.22;;;;;;;10.38;100.00;102273.63;5017157;28;20506;-72
2023/10/06 02:54:21;;;;;;;10.68;7.60;;;;;;;10.42;100.00;102278.84;5024063;28;20112;-72
2023/10/06 02:56:47;;;;;;;12.00;7.65;;;;;;;10.41;100.00;102273.56;5016116;28;20060;-72
2023/10/06 02:59:22;;;;;;;12.13;7.45;;;;;;;10.37;100.00;102282.53;5022792;28;20026;-72
2023/10/06 03:01:57;;;;;;;11.73;7.07;;;;;;;10.37;100.00;102283.41;5022371;28;20065;-72
2023/10/06 03:04:26;;;;;;;12.73;7.18;;;;;;;10.32;100.00;102285.28;5024876;28;20113;-72
2023/10/06 03:06:57;;;;;;;11.35;7.40;;;;;;;10.31;100.00;102286.22;5025478;28;20033;-72
2023/10/06 03:09:43;;;;;;;11.38;7.80;;;;;;;10.25;100.00;102283.75;5031416;28;20479;-72
2023/10/06 03:14:49;;;;;;;13.23;8.57;;;;;;;10.21;100.00;102274.06;5014876;28;20116;-72
2023/10/06 03:17:18;;;;;;;13.00;8.35;;;;;;;10.21;100.00;102266.06;5016763;28;20571;-72
2023/10/06 03:19:44;;;;;;;10.68;8.95;;;;;;;10.20;100.00;102267.00;5020138;28;20025;-71
2023/10/06 03:22:12;;;;;;;12.13;8.38;;;;;;;10.18;100.00;102274.13;5019222;28;20344;-71
2023/10/06 03:24:57;;;;;;;11.63;8.25;;;;;;;10.15;100.00;102272.41;5015431;28;20038;-71
2023/10/06 03:27:23;;;;;;;10.13;7.78;;;;;;;10.12;100.00;102271.63;5021582;28;20021;-72
2023/10/06 03:32:22;;;;;;;11.23;7.90;;;;;;;10.11;100.00;102272.53;5017170;28;20037;-71
2023/10/06 03:34:50;;;;;;;11.57;8.30;;;;;;;10.11;100.00;102272.53;5026612;28;20146;-72
2023/10/06 03:37:34;;;;;;;8.75;7.38;;;;;;;10.05;100.00;102273.56;5027891;28;20061;-72
2023/10/06 03:40:10;;;;;;;9.82;7.28;;;;;;;10.00;100.00;102270.16;5018786;28;20040;-72
2023/10/06 03:42:37;;;;;;;9.73;7.40;;;;;;;10.04;100.00;102276.28;5016982;28;20082;-71
2023/10/06 03:45:13;;;;;;;11.77;8.27;;;;;;;10.03;100.00;102274.50;5027351;28;20579;-71
2023/10/06 03:47:38;;;;;;;12.00;7.97;;;;;;;10.03;100.00;102277.19;5019096;28;20301;-73
2023/10/06 03:50:05;;;;;;;11.68;7.90;;;;;;;9.90;100.00;102264.19;5021900;28;20133;-72
2023/10/06 03:52:30;;;;;;;11.27;7.57;;;;;;;9.97;100.00;102264.91;5023977;28;20029;-71
2023/10/06 03:54:58;;;;;;;12.90;8.30;;;;;;;9.93;100.00;102255.28;5013733;28;20352;-71
2023/10/06 03:57:24;;;;;;;10.73;7.82;;;;;;;9.93;100.00;102265.91;5008292;28;20040;-71
2023/10/06 03:59:49;;;;;;;13.05;7.63;;;;;;;9.88;100.00;102263.38;5014993;28;20025;-72
2023/10/06 04:02:15;;;;;;;10.88;7.97;;;;;;;9.88;100.00;102259.84;5013977;28;20067;-71
2023/10/06 04:04:42;;;;;;;11.38;8.00;;;;;;;9.86;100.00;102254.53;5013934;28;20057;-72
2023/10/06 04:07:08;;;;;;;12.73;7.82;;;;;;;9.86;100.00;102254.53;5021018;28;20036;-72
2023/10/06 04:09:33;;;;;;;11.50;8.23;;;;;;;9.86;100.00;102245.69;5029045;28;20025;-71
2023/10/06 04:12:00;;;;;;;13.45;8.73;;;;;;;9.84;100.00;102240.44;5034781;28;20436;-71
2023/10/06 04:14:28;;;;;;;10.27;8.30;;;;;;;9.82;100.00;102231.59;5036643;28;20472;-71
2023/10/06 04:16:53;;;;;;;15.45;8.50;;;;;;;9.83;100.00;102233.38;5029180;28;20147;-71
2023/10/06 04:19:18;;;;;;;13.38;8.27;;;;;;;9.84;100.00;102231.56;5022809;28;20021;-72
2023/10/06 04:21:44;;;;;;;12.80;8.18;;;;;;;9.79;100.00;102231.69;5017248;28;20035;-73
2023/10/06 04:24:10;;;;;;;12.82;8.43;;;;;;;9.77;100.00;102241.47;5022910;28;20108;-73
2023/10/06 04:26:35;;;;;;;12.95;8.60;;;;;;;9.78;100.00;102250.31;5015268;28;20025;-75
2023/10/06 04:29:01;;;;;;;12.02;8.98;;;;;;;9.73;100.00;102247.78;5026888;28;20057;-76
2023/10/06 04:31:26;;;;;;;11.40;8.65;;;;;;;9.73;100.00;102250.44;5050847;28;20044;-74
2023/10/06 04:33:53;;;;;;;15.60;8.55;;;;;;;9.70;100.00;102263.84;5043746;28;20029;-73
2023/10/06 04:36:23;;;;;;;11.85;8.32;;;;;;;9.68;100.00;102273.63;5007006;28;20029;-75
2023/10/06 04:38:48;;;;;;;9.68;7.78;;;;;;;9.67;100.00;102269.22;5031890;28;20041;-74
2023/10/06 04:41:14;;;;;;;12.65;8.02;;;;;;;9.69;100.00;102262.94;5029789;28;20558;-74
2023/10/06 04:43:44;;;;;;;11.88;8.23;;;;;;;9.62;100.00;102256.03;5020417;28;20435;-74
2023/10/06 04:46:10;;;;;;;11.02;8.48;;;;;;;9.64;100.00;102251.56;5022455;28;20037;-76
2023/10/06 04:48:36;;;;;;;10.48;7.90;;;;;;;9.61;100.00;102240.97;5021094;28;20021;-75
2023/10/06 04:51:05;;;;;;;10.02;7.10;;;;;;;9.60;100.00;102241.03;5016225;28;20038;-75
2023/10/06 04:53:35;;;;;;;9.73;6.80;;;;;;;9.59;100.00;102236.63;5012742;28;20067;-74
2023/10/06 04:56:05;;;;;;;10.23;7.32;;;;;;;9.54;100.00;102242.06;5015599;28;20057;-75
2023/10/06 04:58:31;;;;;;;12.95;8.15;;;;;;;9.51;100.00;102235.94;5021444;28;20048;-73
2023/10/06 05:01:00;;;;;;;10.98;8.00;;;;;;;9.51;100.00;102233.28;5016506;28;20042;-74
2023/10/06 05:03:42;;;;;;;13.13;8.48;;;;;;;9.48;100.00;102227.13;5018383;28;20278;-74
2023/10/06 05:06:15;;;;;;;13.65;8.30;;;;;;;9.51;100.00;102220.00;5017282;28;20518;-73
2023/10/06 05:08:41;;;;;;;12.63;8.60;;;;;;;9.50;100.00;102207.63;5019966;28;20484;-73
2023/10/06 05:11:07;;;;;;;16.50;9.77;;;;;;;9.53;100.00;102212.84;5028682;28;20044;-73
2023/10/06 05:13:34;;;;;;;13.82;9.25;;;;;;;9.55;100.00;102221.66;5012292;28;20399;-73
2023/10/06 05:16:01;;;;;;;11.27;8.38;;;;;;;9.53;100.00;102216.41;5020981;28;20104;-73
2023/10/06 05:18:26;;;;;;;10.32;7.93;;;;;;;9.54;100.00;102226.13;5024411;28;20128;-74
2023/10/06 05:20:52;;;;;;;11.48;8.20;;;;;;;9.57;100.00;102225.16;5024963;28;20482;-73
2023/10/06 05:23:17;;;;;;;11.60;7.75;;;;;;;9.58;100.00;102225.13;5017725;28;20475;-71
2023/10/06 05:25:44;;;;;;;10.95;7.75;;;;;;;9.61;100.00;102216.19;5022245;28;20032;-74
2023/10/06 05:28:16;;;;;;;11.40;7.68;;;;;;;9.65;100.00;102229.38;5022531;28;20025;-74
2023/10/06 05:30:43;;;;;;;11.68;8.13;;;;;;;9.69;100.00;102225.72;5013060;28;20034;-74
2023/10/06 05:33:09;;;;;;;12.13;7.20;;;;;;;9.74;100.00;102215.00;5036349;28;20033;-73
2023/10/06 05:35:38;;;;;;;10.85;7.22;;;;;;;9.76;100.00;102221.13;5018698;28;20025;-74
2023/10/06 05:38:04;;;;;;;14.45;7.80;;;;;;;9.78;100.00;102223.75;5013601;28;20223;-75
2023/10/06 05:40:30;;;;;;;12.05;6.75;;;;;;;9.82;100.00;102220.09;5015734;28;20132;-74
2023/10/06 05:42:55;;;;;;;10.70;6.28;;;;;;;9.83;100.00;102225.38;5022615;28;20120;-73
2023/10/06 05:45:21;;;;;;;11.55;6.80;;;;;;;9.85;100.00;102220.03;5017916;28;20372;-74
2023/10/06 05:47:48;;;;;;;14.50;6.50;;;;;;;9.87;100.00;102228.84;5022204;28;20199;-73
2023/10/06 05:50:27;;;;;;;9.48;6.13;;;;;;;9.88;100.00;102228.78;5016643;28;20033;-73
2023/10/06 05:53:12;;;;;;;8.95;5.82;;;;;;;9.84;100.00;102228.91;5019215;28;20021;-75
2023/10/06 05:55:41;;;;;;;12.20;6.05;;;;;;;9.87;100.00;102229.72;5020060;28;20033;-74
2023/10/06 05:58:14;;;;;;;10.20;6.05;;;;;;;9.88;100.00;102233.25;5021076;28;20017;-75
2023/10/06 06:00:50;;;;;;;9.85;6.20;;;;;;;9.90;100.00;102240.25;5013635;28;21158;-70
2023/10/06 06:03:20;;;;;;;10.77;5.70;;;;;;;9.91;100.00;102242.03;5024507;28;20062;-73
2023/10/06 06:05:48;;;;;;;11.30;6.00;;;;;;;9.95;100.00;102241.03;5017393;28;20112;-75
2023/10/06 06:08:14;;;;;;;12.63;6.10;;;;;;;9.96;100.00;102237.44;5013097;28;20028;-73
2023/10/06 06:10:40;;;;;;;7.72;5.68;;;;;;;9.98;100.00;102237.41;5016008;28;20378;-73
2023/10/06 06:13:06;;;;;;;11.50;5.95;;;;;;;10.03;100.00;102229.28;5022145;28;20061;-73
2023/10/06 06:15:31;;;;;;;10.45;6.50;;;;;;;10.02;100.00;102228.44;5014280;28;20031;-74
2023/10/06 06:17:58;;;;;;;9.40;7.05;;;;;;;10.03;100.00;102231.97;5025475;28;20037;-74
2023/10/06 06:20:25;;;;;;;12.10;5.97;;;;;;;10.06;100.00;102230.09;5012948;28;20064;-74
2023/10/06 06:22:58;;;;;;;12.60;6.85;;;;;;;10.08;100.00;102233.59;5030209;28;20455;-72
2023/10/06 06:25:24;;;;;;;10.65;6.85;;;;;;;10.10;100.00;102241.53;5016861;28;20203;-73
2023/10/06 06:27:50;;;;;;;9.20;6.57;;;;;;;10.12;100.00;102242.38;5013158;28;20052;-76
2023/10/06 06:30:19;;;;;;;10.23;6.63;;;;;;;10.18;100.00;102244.84;5015382;28;20022;-74
2023/10/06 06:32:48;;;;;;;13.07;7.10;;;;;;;10.30;100.00;102236.59;5029183;28;20044;-73
2023/10/06 06:35:14;;;;;;;9.55;6.80;;;;;;;10.39;100.00;102244.31;5022731;28;20117;-74
2023/10/06 06:37:42;;;;;;;11.73;6.82;;;;;;;10.42;100.00;102236.25;5028811;28;20486;-73
2023/10/06 06:40:10;;;;;;;11.13;6.93;;;;;;;10.46;100.00;102237.91;5019265;28;20067;-72
2023/10/06 06:42:36;;;;;;;10.65;6.88;;;;;;;10.53;100.00;102241.25;5021196;28;20187;-74
2023/10/06 06:45:01;;;;;;;14.07;8.38;;;;;;;10.57;100.00;102236.72;5022428;28;20333;-76
2023/10/06 06:47:27;;;;;;;12.35;6.35;;;;;;;10.62;100.00;102234.81;5015352;28;20036;-75
2023/10/06 06:49:52;;;;;;;10.73;5.85;;;;;;;10.63;100.00;102232.09;5017887;28;20072;-76
2023/10/06 06:52:21;;;;;;;10.10;5.97;;;;;;;10.69;100.00;102237.22;5019968;28;20491;-74
2023/10/06 06:54:48;;;;;;;10.30;6.07;;;;;;;10.72;100.00;102236.28;5027544;28;20052;-75
2023/10/06 06:57:17;;;;;;;12.45;6.38;;;;;;;10.80;100.00;102242.25;5018669;28;20029;-75
2023/10/06 06:59:47;;;;;;;14.05;6.10;;;;;;;10.85;100.00;102242.97;5026332;28;20102;-76
2023/10/06 07:02:12;;;;;;;10.77;6.13;;;;;;;10.88;100.00;102234.91;5023677;28;20231;-76
2023/10/06 07:04:38;;;;;;;9.45;5.70;;;;;;;10.88;100.00;102237.56;5020487;28;20574;-75
2023/10/06 07:07:03;;;;;;;7.07;5.30;;;;;;;10.97;100.00;102242.63;5020902;28;20030;-75
2023/10/06 07:09:29;;;;;;;9.70;5.65;;;;;;;11.05;100.00;102242.38;5016471;28;20029;-76
2023/10/06 07:11:57;;;;;;;7.85;5.75;;;;;;;11.07;100.00;102237.00;5007931;28;20053;-75
2023/10/06 07:14:22;;;;;;;8.98;5.53;;;;;;;11.09;100.00;102236.03;5005892;28;20030;-75
2023/10/06 07:16:48;;;;;;;9.68;5.30;;;;;;;11.11;100.00;102234.19;5018702;28;20067;-76
2023/10/06 07:19:14;;;;;;;9.88;5.38;;;;;;;11.15;100.00;102241.16;5013984;28;20396;-75
2023/10/06 07:21:40;;;;;;;8.43;5.30;;;;;;;11.18;100.00;102245.53;5015688;28;20419;-75
2023/10/06 07:24:06;;;;;;;10.57;5.22;;;;;;;11.17;100.00;102247.34;5017005;28;20026;-75
2023/10/06 07:26:32;;;;;;;8.18;5.13;;;;;;;11.24;100.00;102242.69;5028147;28;20020;-74
2023/10/06 07:28:59;;;;;;;11.77;5.38;;;;;;;11.28;100.00;102248.78;5012835;28;20399;-75
2023/10/06 07:31:25;;;;;;;9.25;5.45;;;;;;;11.35;100.00;102237.03;5012972;28;20370;-74
2023/10/06 07:34:03;;;;;;;10.25;5.93;;;;;;;11.42;100.00;102247.44;5021771;28;20133;-75
2023/10/06 07:36:29;;;;;;;9.43;5.40;;;;;;;11.51;100.00;102246.28;5025497;28;20468;-75
2023/10/06 07:38:54;;;;;;;12.50;6.13;;;;;;;11.57;100.00;102248.72;5023850;28;20087;-75
2023/10/06 07:41:25;;;;;;;8.73;5.45;;;;;;;11.64;100.00;102255.63;5024066;28;20087;-75
2023/10/06 07:43:52;;;;;;;12.90;6.00;;;;;;;11.65;100.00;102236.00;5031346;28;20031;-74
2023/10/06 07:46:17;;;;;;;9.30;5.68;;;;;;;11.74;100.00;102245.50;5015167;28;20107;-73
2023/10/06 07:48:45;;;;;;;10.50;5.30;;;;;;;11.80;100.00;102249.78;5014835;28;20034;-74
2023/10/06 07:51:16;;;;;;;7.93;5.22;;;;;;;11.84;100.00;102247.00;5012962;28;20037;-75
2023/10/06 07:53:43;;;;;;;11.05;6.07;;;;;;;11.86;100.00;102255.78;5012072;28;20029;-75
2023/10/06 07:56:09;;;;;;;8.45;5.00;;;;;;;11.98;100.00;102261.66;5015866;28;20032;-73
2023/10/06 07:58:38;;;;;;;7.25;5.75;;;;;;;12.08;100.00;102269.31;5019084;28;20038;-74
2023/10/06 08:01:05;;;;;;;8.75;5.15;;;;;;;12.16;100.00;102275.25;5021723;28;20543;-75
2023/10/06 08:03:32;;;;;;;9.95;5.53;;;;;;;12.24;100.00;102282.09;5020281;28;20037;-74
2023/10/06 08:06:01;;;;;;;8.68;5.15;;;;;;;12.34;100.00;102273.72;5019574;28;20036;-74
2023/10/06 08:08:28;;;;;;;7.95;5.05;;;;;;;12.42;100.00;102268.13;5021428;28;20025;-74
2023/10/06 08:10:54;;;;;;;11.05;5.72;;;;;;;12.52;100.00;102273.97;5015704;28;20099;-75
2023/10/06 08:13:19;;;;;;;10.90;5.78;;;;;;;12.62;100.00;102272.72;5030225;28;20033;-75
2023/10/06 08:15:45;;;;;;;9.80;5.85;;;;;;;12.73;100.00;102258.97;5034228;28;20021;-73
2023/10/06 08:18:12;;;;;;;11.02;6.05;;;;;;;12.93;100.00;102267.97;5013967;28;20026;-75
2023/10/06 08:20:40;;;;;;;9.60;5.30;;;;;;;13.13;100.00;102266.34;5035610;28;20036;-75
2023/10/06 08:23:07;;;;;;;11.27;5.40;;;;;;;13.50;100.00;102264.91;5030954;28;20029;-74
2023/10/06 08:25:33;;;;;;;10.68;6.22;;;;;;;14.12;97.83;102272.13;5020838;28;20164;-74
2023/10/06 08:27:59;;;;;;;9.00;5.25;;;;;;;15.04;94.60;102262.66;5020763;28;20057;-75
2023/10/06 08:30:26;;;;;;;10.73;4.72;;;;;;;16.01;88.50;102269.53;5025255;28;20118;-74
2023/10/06 08:32:54;;;;;;;10.73;4.72;;;;;;;17.15;82.41;102270.66;5019534;28;20488;-75
2023/10/06 08:35:20;;;;;;;9.00;4.32;;;;;;;17.81;77.13;102265.09;5021904;28;20033;-75
2023/10/06 08:37:48;;;;;;;9.93;4.50;;;;;;;18.24;75.45;102265.22;5021675;28;20044;-73
2023/10/06 08:40:19;;;;;;;11.23;4.40;;;;;;;18.45;73.05;102262.16;5015965;28;20064;-75
2023/10/06 08:42:51;;;;;;;8.50;4.43;;;;;;;18.77;72.01;102268.25;5033973;28;20025;-75
2023/10/06 08:45:19;;;;;;;7.82;4.45;;;;;;;19.29;70.54;102268.50;5029075;28;20064;-75
2023/10/06 08:48:09;;;;;;;7.43;4.10;;;;;;;20.09;71.17;102260.50;5026568;28;20013;-73
2023/10/06 08:50:35;;;;;;;8.15;3.80;;;;;;;20.33;65.29;102266.06;5021395;28;20139;-74
2023/10/06 08:53:05;;;;;;;7.00;3.90;;;;;;;20.62;62.76;102270.31;5015563;28;20057;-74
2023/10/06 08:55:30;;;;;;;7.65;4.25;;;;;;;20.85;63.62;102262.41;5025228;28;20029;-74
2023/10/06 08:57:59;;;;;;;7.38;3.67;;;;;;;21.49;61.27;102265.00;5023931;28;20032;-74
2023/10/06 09:00:26;;;;;;;7.55;3.83;;;;;;;21.60;59.99;102263.19;5025818;28;20033;-75
2023/10/06 09:02:54;;;;;;;7.30;3.65;;;;;;;22.00;58.56;102260.16;5012880;28;20463;-75
2023/10/06 09:05:20;;;;;;;6.45;3.40;;;;;;;22.00;57.10;102262.88;5016813;28;20381;-76
2023/10/06 09:08:05;;;;;;;6.78;3.17;;;;;;;21.89;59.25;102265.53;5022253;28;20564;-74
2023/10/06 09:10:36;;;;;;;10.63;3.75;;;;;;;21.82;60.02;102273.28;5021325;28;20017;-76
2023/10/06 09:13:11;;;;;;;7.50;3.28;;;;;;;22.22;57.58;102258.53;5022953;28;20468;-76
2023/10/06 09:15:40;;;;;;;7.97;3.70;;;;;;;21.91;57.82;102266.31;5021903;28;20033;-76
2023/10/06 09:18:29;;;;;;;6.40;3.30;;;;;;;21.93;59.73;102266.19;5027276;28;20022;-75
2023/10/06 09:20:57;;;;;;;7.93;3.40;;;;;;;21.86;58.03;102268.47;5025479;28;20026;-75
2023/10/06 09:23:41;;;;;;;8.27;3.30;;;;;;;21.99;59.51;102269.28;5020956;28;20018;-75
2023/10/06 09:26:09;;;;;;;8.38;3.30;;;;;;;21.74;57.31;102270.28;5029422;28;20530;-75
2023/10/06 09:28:48;;;;;;;8.85;3.67;;;;;;;21.42;59.87;102275.41;5016181;28;20032;-75
2023/10/06 09:31:13;;;;;;;9.57;3.58;;;;;;;21.47;59.29;102267.78;5017561;28;20483;-75
2023/10/06 09:33:38;;;;;;;6.15;3.33;;;;;;;22.57;56.96;102258.47;5032717;28;20032;-76
2023/10/06 09:36:16;;;;;;;9.05;3.45;;;;;;;23.18;53.98;102269.00;5022207;28;20033;-76
2023/10/06 09:38:42;;;;;;;6.32;3.35;;;;;;;23.57;53.69;102251.22;5020872;28;20024;-76
2023/10/06 09:41:09;;;;;;;6.90;3.00;;;;;;;23.94;51.50;102246.28;5023109;28;20038;-76
2023/10/06 09:43:39;;;;;;;5.95;3.17;;;;;;;23.44;52.66;102253.25;5026717;28;20049;-76
2023/10/06 09:46:06;;;;;;;5.18;2.85;;;;;;;22.62;53.45;102245.41;5019894;28;20112;-76
2023/10/06 09:48:34;;;;;;;9.65;3.33;;;;;;;22.09;56.36;102245.91;5023580;28;20029;-76
2023/10/06 09:51:05;;;;;;;8.25;3.10;;;;;;;21.62;57.51;102234.16;5017461;28;20319;-75
2023/10/06 09:53:36;;;;;;;7.25;2.97;;;;;;;21.25;58.78;102251.38;5009185;28;20033;-75
2023/10/06 09:56:03;;;;;;;7.88;2.90;;;;;;;21.43;59.20;102241.06;5021822;28;20033;-77
2023/10/06 09:58:29;;;;;;;7.03;2.95;;;;;;;21.79;58.40;102238.28;5017578;28;20567;-77
2023/10/06 10:00:56;;;;;;;7.70;3.17;;;;;;;21.88;56.83;102229.44;5017797;28;20070;-75
2023/10/06 10:03:22;;;;;;;5.55;2.85;;;;;;;21.63;57.25;102226.88;5013432;28;20029;-74
2023/10/06 10:05:49;;;;;;;6.90;3.03;;;;;;;21.48;58.99;102237.00;5023634;28;20041;-75
2023/10/06 10:08:15;;;;;;;5.13;3.13;;;;;;;21.09;58.91;102235.41;5019221;28;20125;-76
2023/10/06 10:10:45;;;;;;;7.20;3.47;;;;;;;20.55;61.39;102241.09;5021508;28;20039;-76
2023/10/06 10:13:24;;;;;;;6.18;3.50;;;;;;;20.32;63.35;102248.13;5029152;28;20029;-75
2023/10/06 10:16:04;;;;;;;9.98;3.60;;;;;;;19.92;63.98;102239.19;5022589;28;20495;-76
2023/10/06 10:18:38;;;;;;;7.18;3.60;;;;;;;19.56;66.11;102236.13;5012635;28;20052;-76
2023/10/06 10:21:04;;;;;;;;;;;;;;;20.01;64.93;102235.84;5027943;28;20029;-77
2023/10/06 10:23:30;;;;;;;10.65;3.53;;;;;;;19.86;65.82;102238.63;5026462;28;19923;-75
2023/10/06 10:26:13;;;;;;;8.82;3.50;;;;;;;19.72;66.58;102232.41;5027527;28;20029;-76
2023/10/06 10:28:39;;;;;;;6.05;3.15;;;;;;;19.46;66.82;102232.31;5014228;28;20037;-75
2023/10/06 10:31:05;;;;;;;9.60;3.42;;;;;;;19.14;68.40;102234.41;5024610;28;20378;-75
2023/10/06 10:33:37;;;;;;;6.07;3.47;;;;;;;19.20;68.88;102241.25;5021876;28;20406;-74
2023/10/06 10:36:18;;;;;;;6.80;3.40;;;;;;;19.31;69.25;102234.19;5019965;28;20025;-75
2023/10/06 10:39:14;;;;;;;8.15;3.45;;;;;;;19.33;69.34;102239.47;5016041;28;20034;-75
2023/10/06 10:41:40;;;;;;;7.80;3.30;;;;;;;19.51;68.59;102240.94;5028166;28;20060;-75
2023/10/06 10:44:11;;;;;;;10.60;3.40;;;;;;;20.21;67.24;102231.78;5031308;28;20032;-75
2023/10/06 10:46:48;;;;;;;8.10;3.40;;;;;;;21.14;63.93;102225.94;5019575;28;20036;-76
2023/10/06 10:49:18;;;;;;;7.45;3.03;;;;;;;22.04;60.43;102222.84;5024508;28;20103;-76
2023/10/06 10:51:57;;;;;;;5.47;2.83;;;;;;;23.04;57.67;102215.81;5027761;28;20047;-75
2023/10/06 10:54:26;;;;;;;8.23;3.10;;;;;;;23.05;55.28;102212.97;5017684;28;20491;-75
2023/10/06 10:56:53;;;;;;;5.80;2.63;;;;;;;23.63;54.50;102203.66;5030843;28;20040;-76
2023/10/06 10:59:21;;;;;;;6.80;2.70;;;;;;;24.73;52.01;102200.38;5023953;28;20112;-75
2023/10/06 11:01:52;;;;;;;8.00;3.05;;;;;;;25.34;49.22;102199.44;5014853;28;20029;-74
2023/10/06 11:04:25;;;;;;;6.32;2.75;;;;;;;25.09;49.49;102209.00;5025037;28;20029;-74
2023/10/06 11:06:55;;;;;;;5.38;2.78;;;;;;;25.32;47.91;102199.56;5023142;28;20033;-76
2023/10/06 11:09:28;;;;;;;7.22;3.22;;;;;;;25.08;48.43;102209.94;5013099;28;20400;-77
2023/10/06 11:11:56;;;;;;;6.95;3.30;;;;;;;25.32;46.92;102207.72;5029999;28;20072;-76
2023/10/06 11:14:23;;;;;;;5.30;2.80;;;;;;;25.21;47.15;102207.88;5021505;28;20086;-75
2023/10/06 11:16:49;;;;;;;6.90;2.95;;;;;;;25.13;47.67;102207.72;5030361;28;20041;-75
2023/10/06 11:19:15;;;;;;;8.13;2.90;;;;;;;24.16;49.99;102226.28;5022748;28;20398;-75
2023/10/06 11:21:44;;;;;;;6.22;2.78;;;;;;;23.20;52.58;102220.81;5013775;28;20021;-75
2023/10/06 11:24:10;;;;;;;5.15;2.53;;;;;;;22.58;54.52;102205.94;5024283;28;20036;-74
2023/10/06 11:26:36;;;;;;;7.10;3.10;;;;;;;22.03;56.25;102210.25;5016690;28;20234;-76
2023/10/06 11:29:02;;;;;;;4.95;3.00;;;;;;;21.52;57.71;102216.84;5014840;28;20026;-76
2023/10/06 11:31:29;;;;;;;8.93;3.42;;;;;;;21.06;59.78;102211.25;5017291;28;20028;-74
2023/10/06 11:33:55;;;;;;;8.15;3.22;;;;;;;20.91;61.42;102213.25;5025633;28;20025;-75